WMKK/KUL METAR and TAF weather

Enter ICAO airport designator
Station Type Date Time Source
WMKK METAR 2020/08/10 17:30 UTC NOAA

WMKK 101730Z 00000KT 9999 FEW030 27/25 Q1009 NOSIG


Station Type Date Time Source
WMKK Decoded METAR 2020/08/10 17:30 UTC NOAA

Sepang/KL International Airport, Malaysia (WMKK) 02-44N 101-42E 22M
Aug 10, 2020 - 01:30 PM EDT / 2020.08.10 1730 UTC
Wind: Calm:0
Visibility: greater than 7 mile(s):0
Sky conditions: mostly clear
Temperature: 80 F (27 C)
Dew Point: 77 F (25 C)
Relative Humidity: 88%
Pressure (altimeter): 29.80 in. Hg (1009 hPa)
ob: WMKK 101730Z 00000KT 9999 FEW030 27/25 Q1009 NOSIG
cycle: 17

Station Type Date Time Source
WMKK TAF 2020/08/10 18:17 UTC NOAA

TAF WMKK 101700Z 1018/1200 VRB02KT 9999 FEW030
BECMG 1101/1102 FEW018
BECMG 1106/1108 22005KT

Example: see airport list